Latest Weather Observations for St Kilda Harbour RMYS

IDV60901

Issued at 3:11 am EDT Saturday 19 October 2019 (issued every 10 minutes, with the page automatically refreshed every 10 minutes)

About weather observations | Map of Melbourne area stations | Latest observations for Melbourne area | Other Formats
Station Details ID: 086220 Name: ST KILDA HARBOUR - RMYS Lat: -37.86 Lon: 144.96 Height: 6.4 m
Data from the previous 72 hours. | See also: Recent months at St Kilda Harbour RMYS
Date/Time
EDT
Temp
°C
App
Temp
°C
Dew
Point
°C
Rel
Hum
%
Delta-T
°C
Wind Press
QNH
hPa
Press
MSL
hPa
Rain since
9am
mm
Dir  Spd
km/h
Gust
km/h
Spd
kts
Gust
kts
19/03:00am - - - - - WNW 20 28 11 15 - - -
19/02:30am - - - - - WNW 19 26 10 14 - - -
19/02:00am - - - - - WSW 26 32 14 17 - - -
19/01:30am - - - - - WSW 28 35 15 19 - - -
19/01:00am - - - - - W 30 41 16 22 - - -
19/12:54am - - - - - W 28 41 15 22 - - -
19/12:30am - - - - - W 17 22 9 12 - - -
19/12:00am - - - - - W 17 20 9 11 - - -
 
Date/Time
EDT
Temp
°C
App
Temp
°C
Dew
Point
°C
Rel
Hum
%
Delta-T
°C
Wind Press
QNH
hPa
Press
MSL
hPa
Rain since
9am
mm
Dir  Spd
km/h
Gust
km/h
Spd
kts
Gust
kts
18/11:30pm - - - - - W 17 20 9 11 - - -
18/11:00pm - - - - - W 24 28 13 15 - - -
18/10:30pm - - - - - W 30 37 16 20 - - -
18/10:00pm - - - - - W 28 39 15 21 - - -
18/09:30pm - - - - - WSW 50 65 27 35 - - -
18/09:00pm - - - - - WSW 57 67 31 36 - - -
18/08:30pm - - - - - WSW 59 72 32 39 - - -
18/08:03pm - - - - - WSW 61 82 33 44 - - -
18/08:00pm - - - - - SW 63 82 34 44 - - -
18/07:50pm - - - - - WSW 48 76 26 41 - - -
18/07:45pm - - - - - W 37 67 20 36 - - -
18/07:42pm - - - - - WNW 33 46 18 25 - - -
18/07:30pm - - - - - WNW 37 46 20 25 - - -
18/07:00pm - - - - - NW 41 54 22 29 - - -
18/06:33pm - - - - - NW 35 54 19 29 - - -
18/06:30pm - - - - - NW 35 44 19 24 - - -
18/06:00pm - - - - - NW 39 54 21 29 - - -
18/05:30pm - - - - - NW 43 56 23 30 - - -
18/05:00pm - - - - - NW 39 50 21 27 - - -
18/04:35pm - - - - - NW 44 57 24 31 - - -
18/04:30pm - - - - - NW 44 65 24 35 - - -
18/04:03pm - - - - - NW 44 65 24 35 - - -
18/04:00pm - - - - - NW 43 61 23 33 - - -
18/03:30pm - - - - - NW 44 65 24 35 - - -
18/03:01pm - - - - - NW 43 63 23 34 - - -
18/03:00pm - - - - - NW 43 59 23 32 - - -
18/02:30pm - - - - - NNW 41 61 22 33 - - -
18/02:00pm - - - - - NW 43 61 23 33 - - -
18/01:43pm - - - - - NW 41 59 22 32 - - -
18/01:30pm - - - - - NW 41 54 22 29 - - -
18/01:00pm - - - - - NW 43 59 23 32 - - -
18/12:30pm - - - - - NNW 37 56 20 30 - - -
18/12:09pm - - - - - NNW 33 56 18 30 - - -
18/12:00pm - - - - - NW 33 44 18 24 - - -
18/11:48am - - - - - NNW 35 57 19 31 - - -
18/11:30am - - - - - NNW 32 48 17 26 - - -
18/11:28am - - - - - NW 30 48 16 26 - - -
18/11:00am - - - - - NW 35 44 19 24 - - -
18/10:49am - - - - - NNW 28 52 15 28 - - -
18/10:30am - - - - - N 22 33 12 18 - - -
18/10:00am - - - - - NNW 22 35 12 19 - - -
18/09:30am - - - - - N 22 32 12 17 - - -
18/09:00am - - - - - NNW 22 30 12 16 - - -
18/08:30am - - - - - NNW 22 28 12 15 - - -
18/08:00am - - - - - N 19 26 10 14 - - -
18/07:30am - - - - - N 7 11 4 6 - - -
18/07:00am - - - - - NNE 7 13 4 7 - - -
18/06:30am - - - - - N 7 9 4 5 - - -
18/06:00am - - - - - N 13 17 7 9 - - -
18/05:30am - - - - - NNW 13 19 7 10 - - -
18/05:00am - - - - - NNW 13 19 7 10 - - -
18/04:30am - - - - - NNW 13 17 7 9 - - -
18/04:00am - - - - - NNW 15 20 8 11 - - -
18/03:30am - - - - - NNW 15 19 8 10 - - -
18/03:00am - - - - - NW 17 20 9 11 - - -
18/02:30am - - - - - NW 20 26 11 14 - - -
18/02:00am - - - - - WNW 24 28 13 15 - - -
18/01:30am - - - - - WNW 24 28 13 15 - - -
18/01:00am - - - - - W 28 32 15 17 - - -
18/12:30am - - - - - W 26 30 14 16 - - -
18/12:00am - - - - - W 30 41 16 22 - - -
 
Date/Time
EDT
Temp
°C
App
Temp
°C
Dew
Point
°C
Rel
Hum
%
Delta-T
°C
Wind Press
QNH
hPa
Press
MSL
hPa
Rain since
9am
mm
Dir  Spd
km/h
Gust
km/h
Spd
kts
Gust
kts
17/11:30pm - - - - - W 26 33 14 18 - - -
17/11:00pm - - - - - WSW 33 37 18 20 - - -
17/10:30pm - - - - - W 28 35 15 19 - - -
17/10:00pm - - - - - W 35 44 19 24 - - -
17/09:30pm - - - - - W 33 43 18 23 - - -
17/09:00pm - - - - - WSW 37 44 20 24 - - -
17/08:30pm - - - - - WSW 37 43 20 23 - - -
17/08:00pm - - - - - WSW 37 44 20 24 - - -
17/07:30pm - - - - - WSW 32 37 17 20 - - -
17/07:00pm - - - - - WSW 37 46 20 25 - - -
17/06:30pm - - - - - WSW 41 56 22 30 - - -
17/06:00pm - - - - - W 43 52 23 28 - - -
17/05:42pm - - - - - WSW 43 54 23 29 - - -
17/05:30pm - - - - - SW 41 52 22 28 - - -
17/05:21pm - - - - - SW 52 70 28 38 - - -
17/05:14pm - - - - - WSW 46 70 25 38 - - -
17/05:12pm - - - - - WSW 41 67 22 36 - - -
17/05:00pm - - - - - WSW 35 52 19 28 - - -
17/04:30pm - - - - - W 33 54 18 29 - - -
17/04:27pm - - - - - W 35 54 19 29 - - -
17/04:00pm - - - - - W 46 57 25 31 - - -
17/03:30pm - - - - - W 50 61 27 33 - - -
17/03:00pm - - - - - W 48 59 26 32 - - -
17/02:31pm - - - - - W 46 65 25 35 - - -
17/02:30pm - - - - - W 46 56 25 30 - - -
17/02:03pm - - - - - WNW 41 61 22 33 - - -
17/02:00pm - - - - - WNW 39 50 21 27 - - -
17/01:30pm - - - - - W 46 56 25 30 - - -
17/01:00pm - - - - - W 50 65 27 35 - - -
17/12:34pm - - - - - W 46 74 25 40 - - -
17/12:30pm - - - - - W 41 57 22 31 - - -
17/12:07pm - - - - - W 43 69 23 37 - - -
17/12:00pm - - - - - W 39 46 21 25 - - -
17/11:30am - - - - - W 39 54 21 29 - - -
17/11:00am - - - - - W 48 57 26 31 - - -
17/10:30am - - - - - W 39 46 21 25 - - -
17/10:00am - - - - - W 39 52 21 28 - - -
17/09:30am - - - - - W 39 50 21 27 - - -
17/09:00am - - - - - WNW 32 43 17 23 - - -
17/08:30am - - - - - WNW 35 44 19 24 - - -
17/08:00am - - - - - WNW 33 41 18 22 - - -
17/07:30am - - - - - W 35 54 19 29 - - -
17/07:29am - - - - - W 35 52 19 28 - - -
17/07:00am - - - - - W 28 33 15 18 - - -
17/06:30am - - - - - WNW 28 39 15 21 - - -
17/06:00am - - - - - NW 28 33 15 18 - - -
17/05:44am - - - - - NW 32 50 17 27 - - -
17/05:42am - - - - - NW 28 41 15 22 - - -
17/05:30am - - - - - NW 17 22 9 12 - - -
17/05:00am - - - - - NW 20 24 11 13 - - -
17/04:30am - - - - - WNW 24 32 13 17 - - -
17/04:00am - - - - - WNW 32 43 17 23 - - -
17/03:42am - - - - - NW 24 44 13 24 - - -
17/03:30am - - - - - NNW 20 28 11 15 - - -
17/03:00am - - - - - N 4 7 2 4 - - -
17/02:30am - - - - - NNE 7 9 4 5 - - -
17/02:00am - - - - - NNE 4 7 2 4 - - -
17/01:30am - - - - - N 4 7 2 4 - - -
17/01:00am - - - - - NW 6 7 3 4 - - -
17/12:30am - - - - - WSW 11 15 6 8 - - -
17/12:00am - - - - - SW 7 9 4 5 - - -
 
Date/Time
EDT
Temp
°C
App
Temp
°C
Dew
Point
°C
Rel
Hum
%
Delta-T
°C
Wind Press
QNH
hPa
Press
MSL
hPa
Rain since
9am
mm
Dir  Spd
km/h
Gust
km/h
Spd
kts
Gust
kts
16/11:30pm - - - - - WSW 17 20 9 11 - - -
16/11:00pm - - - - - SSW 15 19 8 10 - - -
16/10:30pm - - - - - SSW 19 20 10 11 - - -
16/10:00pm - - - - - SW 15 17 8 9 - - -
16/09:30pm - - - - - CALM 0 2 0 1 - - -
16/09:00pm - - - - - NNE 6 7 3 4 - - -
16/08:30pm - - - - - SSE 7 13 4 7 - - -
16/08:00pm - - - - - S 2 6 1 3 - - -
16/07:30pm - - - - - SSE 9 13 5 7 - - -
16/07:00pm - - - - - SSE 17 22 9 12 - - -
16/06:30pm - - - - - S 22 26 12 14 - - -
16/06:00pm - - - - - SSW 26 32 14 17 - - -
16/05:40pm - - - - - WSW 20 41 11 22 - - -
16/05:30pm - - - - - W 15 19 8 10 - - -
16/05:00pm - - - - - W 20 32 11 17 - - -
16/04:30pm - - - - - WSW 37 46 20 25 - - -
16/04:00pm - - - - - SW 35 44 19 24 - - -
16/03:48pm - - - - - SW 35 54 19 29 - - -
16/03:30pm - - - - - WNW 26 33 14 18 - - -
16/03:00pm - - - - - NNW 13 19 7 10 - - -
16/02:30pm - - - - - NNE 17 24 9 13 - - -
16/02:00pm - - - - - N 20 30 11 16 - - -
16/01:30pm - - - - - NW 24 37 13 20 - - -
16/01:00pm - - - - - NNW 17 33 9 18 - - -
16/12:30pm - - - - - N 15 20 8 11 - - -
16/12:00pm - - - - - N 19 24 10 13 - - -
16/11:30am - - - - - NNE 15 22 8 12 - - -
16/11:00am - - - - - NNE 15 20 8 11 - - -
16/10:30am - - - - - NNW 11 15 6 8 - - -
16/10:00am - - - - - NNW 9 13 5 7 - - -
16/09:30am - - - - - NNE 9 13 5 7 - - -
16/09:00am - - - - - ENE 7 11 4 6 - - -
16/08:30am - - - - - ESE 7 9 4 5 - - -
16/08:00am - - - - - ESE 4 6 2 3 - - -
16/07:30am - - - - - SSE 4 6 2 3 - - -
16/07:00am - - - - - ESE 6 9 3 5 - - -
16/06:30am - - - - - NNE 6 7 3 4 - - -
16/06:00am - - - - - ENE 7 9 4 5 - - -
16/05:30am - - - - - E 9 13 5 7 - - -
16/05:00am - - - - - SSE 7 11 4 6 - - -
16/04:30am - - - - - SSE 11 15 6 8 - - -
16/04:00am - - - - - SSE 6 9 3 5 - - -
16/03:30am - - - - - SE 7 11 4 6 - - -

Latest Capital City Observations: Canberra | Sydney | Melbourne | Brisbane | Adelaide | Perth | Hobart | Darwin

Other formats

Comma delimited format used in spreadsheet applications
http://www.bom.gov.au/fwo/IDV60901/IDV60901.95864.axf

JavaScript Object Notation format (JSON) in row-major order
http://www.bom.gov.au/fwo/IDV60901/IDV60901.95864.json

Data quality

Most of these data are generated automatically and are frequently updated. Quality checks on data are not normally performed. It is possible for incorrect values to appear. Refer to information at About Latest Weather Observations and please check the disclaimer before using these data.